Time;durP1;ratioP1;P1;durP2;ratioP2;P2;SDS_P1;SDS_P2;PMS_P1;PMS_P2;Temp;Humidity;BMP_temperature;BMP_pressure;BME280_temperature;BME280_humidity;BME280_pressure;Samples;Min_cycle;Max_cycle;Signal;HPM_P1;HPM_P2
2023/12/24 00:01:48;;;;;;;;;;;10.50;99.90;;;;;;8418164;28;19940;-72
2023/12/24 00:05:50;;;;;;;;;;;10.50;99.90;;;;;;8429565;28;19925;-72
2023/12/24 00:09:52;;;;;;;;;;;10.50;99.90;;;;;;8427808;28;19924;-72
2023/12/24 00:13:53;;;;;;;;;;;10.50;99.90;;;;;;8423716;28;19950;-72
2023/12/24 00:17:55;;;;;;;;;;;10.50;99.90;;;;;;8422557;28;19928;-72
2023/12/24 00:21:57;;;;;;;;;;;10.50;99.90;;;;;;8424290;28;19928;-72
2023/12/24 00:25:59;;;;;;;;;;;10.50;99.90;;;;;;8424791;28;19931;-72
2023/12/24 00:30:00;;;;;;;;;;;10.50;99.90;;;;;;8426793;28;20313;-72
2023/12/24 00:34:02;;;;;;;;;;;10.50;99.90;;;;;;8433523;28;19924;-72
2023/12/24 00:38:04;;;;;;;;;;;10.50;99.90;;;;;;8466868;27;19932;-72
2023/12/24 00:42:05;;;;;;;;;;;10.50;99.90;;;;;;8436120;28;19932;-72
2023/12/24 00:46:07;;;;;;;;;;;10.50;99.90;;;;;;8426177;28;19971;-72
2023/12/24 00:50:10;;;;;;;;;;;10.50;99.90;;;;;;8433101;28;21607;-72
2023/12/24 00:54:12;;;;;;;;;;;10.50;99.90;;;;;;8433270;28;20019;-71
2023/12/24 00:58:16;;;;;;;;;;;10.50;99.90;;;;;;8433326;28;20376;-72
2023/12/24 01:02:18;;;;;;;;;;;10.40;99.90;;;;;;8426153;28;19936;-72
2023/12/24 01:06:19;;;;;;;;;;;10.20;99.90;;;;;;8430827;28;19946;-72
2023/12/24 01:10:21;;;;;;;;;;;10.00;99.90;;;;;;8419276;28;19932;-72
2023/12/24 01:14:23;;;;;;;;;;;9.90;99.90;;;;;;8426637;28;20283;-71
2023/12/24 01:18:25;;;;;;;;;;;9.80;99.90;;;;;;8431632;28;19924;-72
2023/12/24 01:22:27;;;;;;;;;;;9.70;99.90;;;;;;8434274;28;19932;-71
2023/12/24 01:26:28;;;;;;;;;;;9.70;99.90;;;;;;8428901;28;20295;-71
2023/12/24 01:30:30;;;;;;;;;;;9.60;99.90;;;;;;8434467;28;19977;-71
2023/12/24 01:34:32;;;;;;;;;;;9.60;99.90;;;;;;8428440;28;19931;-72
2023/12/24 01:38:34;;;;;;;;;;;9.60;99.90;;;;;;8422641;28;19931;-71
2023/12/24 01:42:35;;;;;;;;;;;9.60;99.90;;;;;;8416409;28;20174;-72
2023/12/24 01:46:37;;;;;;;;;;;9.50;99.90;;;;;;8431191;28;19924;-71
2023/12/24 01:50:39;;;;;;;;;;;9.50;99.90;;;;;;8428166;28;19924;-71
2023/12/24 01:54:41;;;;;;;;;;;9.50;99.90;;;;;;8436161;28;19928;-71
2023/12/24 01:58:42;;;;;;;;;;;9.50;99.90;;;;;;8441325;28;20360;-71
2023/12/24 02:02:44;;;;;;;;;;;9.50;99.90;;;;;;8424338;28;19924;-71
2023/12/24 02:06:46;;;;;;;;;;;9.50;99.90;;;;;;8423815;28;19971;-72
2023/12/24 02:10:48;;;;;;;;;;;9.50;99.90;;;;;;8433212;28;19937;-71
2023/12/24 02:14:50;;;;;;;;;;;9.50;99.90;;;;;;8430607;28;20323;-71
2023/12/24 02:18:51;;;;;;;;;;;9.60;99.90;;;;;;8431565;28;20288;-72
2023/12/24 02:22:53;;;;;;;;;;;9.60;99.90;;;;;;8436928;28;20306;-71
2023/12/24 02:27:03;;;;;;;;;;;9.60;99.90;;;;;;8429340;28;19924;-72
2023/12/24 02:31:07;;;;;;;;;;;9.70;99.90;;;;;;8429381;28;19928;-71
2023/12/24 02:35:09;;;;;;;;;;;9.70;99.90;;;;;;8419807;28;19924;-72
2023/12/24 02:39:11;;;;;;;;;;;9.70;99.90;;;;;;8424366;28;19928;-72
2023/12/24 02:43:13;;;;;;;;;;;9.70;99.90;;;;;;8441130;28;19924;-71
2023/12/24 02:47:15;;;;;;;;;;;9.70;99.90;;;;;;8428233;28;19924;-72
2023/12/24 02:51:16;;;;;;;;;;;9.70;99.90;;;;;;8434291;28;19931;-71
2023/12/24 02:55:18;;;;;;;;;;;9.70;99.90;;;;;;8422614;28;19932;-71
2023/12/24 02:59:20;;;;;;;;;;;9.70;99.90;;;;;;8428026;28;19924;-71
2023/12/24 03:03:21;;;;;;;;;;;9.70;99.90;;;;;;8429218;28;19928;-71
2023/12/24 03:07:23;;;;;;;;;;;9.80;99.90;;;;;;8424735;28;20290;-71
2023/12/24 03:11:25;;;;;;;;;;;9.80;99.90;;;;;;8429157;28;21086;-72
2023/12/24 03:15:27;;;;;;;;;;;9.80;99.90;;;;;;8440021;28;19930;-71
2023/12/24 03:19:31;;;;;;;;;;;9.80;99.90;;;;;;8429548;28;19963;-71
2023/12/24 03:23:33;;;;;;;;;;;9.80;99.90;;;;;;8417919;28;19924;-71
2023/12/24 03:27:35;;;;;;;;;;;9.90;99.90;;;;;;8429169;28;19973;-71
2023/12/24 03:31:36;;;;;;;;;;;9.90;99.90;;;;;;8419404;28;19981;-71
2023/12/24 03:35:38;;;;;;;;;;;9.90;99.90;;;;;;8423487;28;19924;-71
2023/12/24 03:39:40;;;;;;;;;;;9.90;99.90;;;;;;8429348;28;19932;-71
2023/12/24 03:43:42;;;;;;;;;;;10.00;99.90;;;;;;8425146;28;19942;-71
2023/12/24 03:47:43;;;;;;;;;;;10.00;99.90;;;;;;8440289;28;19928;-71
2023/12/24 03:51:47;;;;;;;;;;;10.00;99.90;;;;;;8427508;28;19924;-71
2023/12/24 03:55:48;;;;;;;;;;;10.00;99.90;;;;;;8444215;28;19935;-71
2023/12/24 03:59:50;;;;;;;;;;;10.00;99.90;;;;;;8430774;28;19993;-71
2023/12/24 04:03:52;;;;;;;;;;;10.00;99.90;;;;;;8427212;28;19981;-71
2023/12/24 04:07:54;;;;;;;;;;;10.10;99.90;;;;;;8466360;27;19959;-71
2023/12/24 04:11:55;;;;;;;;;;;10.10;99.90;;;;;;8435979;28;19924;-71
2023/12/24 04:15:57;;;;;;;;;;;10.10;99.90;;;;;;8465308;27;19928;-71
2023/12/24 04:19:59;;;;;;;;;;;10.10;99.90;;;;;;8422002;28;19924;-71
2023/12/24 04:24:00;;;;;;;;;;;10.10;99.90;;;;;;8438493;28;19928;-71
2023/12/24 04:28:02;;;;;;;;;;;10.10;99.90;;;;;;8435226;28;19931;-72
2023/12/24 04:32:04;;;;;;;;;;;10.20;99.90;;;;;;8435792;28;20416;-72
2023/12/24 04:36:06;;;;;;;;;;;10.20;99.90;;;;;;8421493;28;19932;-71
2023/12/24 04:40:08;;;;;;;;;;;10.20;99.90;;;;;;8428160;28;20314;-72
2023/12/24 04:44:10;;;;;;;;;;;10.20;99.90;;;;;;8434607;28;19963;-72
2023/12/24 04:48:11;;;;;;;;;;;10.20;99.90;;;;;;8466164;27;19924;-71
2023/12/24 04:52:13;;;;;;;;;;;10.20;99.90;;;;;;8419125;28;19934;-72
2023/12/24 04:56:21;;;;;;;;;;;10.30;99.90;;;;;;8435399;28;20295;-71
2023/12/24 05:00:23;;;;;;;;;;;10.30;99.90;;;;;;8424638;28;19928;-72
2023/12/24 05:04:27;;;;;;;;;;;10.30;99.90;;;;;;8434580;28;19935;-72
2023/12/24 05:08:28;;;;;;;;;;;10.30;99.90;;;;;;8437399;28;19932;-72
2023/12/24 05:12:30;;;;;;;;;;;10.30;99.90;;;;;;8438964;28;20359;-72
2023/12/24 05:16:32;;;;;;;;;;;10.30;99.90;;;;;;8436946;28;19924;-71
2023/12/24 05:20:33;;;;;;;;;;;10.40;99.90;;;;;;8431690;28;20344;-72
2023/12/24 05:24:35;;;;;;;;;;;10.40;99.90;;;;;;8419625;28;20383;-72
2023/12/24 05:28:36;;;;;;;;;;;10.40;99.90;;;;;;8417090;28;19935;-72
2023/12/24 05:52:53;;;;;;;;;;;10.50;99.90;;;;;;8438975;28;19984;-72
2023/12/24 05:56:55;;;;;;;;;;;10.50;99.90;;;;;;8431275;28;19935;-72
2023/12/24 06:00:56;;;;;;;;;;;10.60;99.90;;;;;;8428638;28;20402;-72
2023/12/24 06:04:58;;;;;;;;;;;10.60;99.90;;;;;;8389541;28;19933;-72
2023/12/24 06:09:00;;;;;;;;;;;10.60;99.90;;;;;;8424900;28;19932;-72
2023/12/24 06:13:03;;;;;;;;;;;10.60;99.90;;;;;;8422205;28;19925;-72
2023/12/24 06:17:04;;;;;;;;;;;10.60;99.90;;;;;;8419037;28;19935;-72
2023/12/24 06:21:08;;;;;;;;;;;10.60;99.90;;;;;;8423727;28;19928;-72
2023/12/24 06:25:10;;;;;;;;;;;10.60;99.90;;;;;;8427258;28;19935;-71
2023/12/24 06:29:12;;;;;;;;;;;10.60;99.90;;;;;;8434647;28;19977;-71
2023/12/24 06:33:13;;;;;;;;;;;10.60;99.90;;;;;;8434817;28;19928;-72
2023/12/24 06:37:15;;;;;;;;;;;10.60;99.90;;;;;;8431591;28;20420;-72
2023/12/24 06:41:17;;;;;;;;;;;10.60;99.90;;;;;;8449053;28;19923;-72
2023/12/24 06:45:19;;;;;;;;;;;10.60;99.90;;;;;;8433546;28;19928;-72
2023/12/24 06:49:20;;;;;;;;;;;10.70;99.90;;;;;;8435006;28;19939;-72
2023/12/24 06:53:22;;;;;;;;;;;10.70;99.90;;;;;;8421739;28;19944;-72
2023/12/24 06:57:24;;;;;;;;;;;10.70;99.90;;;;;;8423044;28;19924;-72
2023/12/24 07:01:25;;;;;;;;;;;10.70;99.90;;;;;;8427363;28;19925;-72
2023/12/24 07:05:34;;;;;;;;;;;10.70;99.90;;;;;;8433537;28;19963;-72
2023/12/24 07:09:35;;;;;;;;;;;10.70;99.90;;;;;;8424202;28;19923;-72
2023/12/24 07:13:37;;;;;;;;;;;10.80;99.90;;;;;;8432252;28;20383;-72
2023/12/24 07:17:39;;;;;;;;;;;10.80;99.90;;;;;;8466405;27;19924;-72
2023/12/24 07:21:41;;;;;;;;;;;10.80;99.90;;;;;;8448035;28;19928;-72
2023/12/24 07:25:43;;;;;;;;;;;10.80;99.90;;;;;;8424963;28;19932;-72
2023/12/24 07:29:44;;;;;;;;;;;10.80;99.90;;;;;;8438845;28;19935;-72
2023/12/24 07:33:46;;;;;;;;;;;10.80;99.90;;;;;;8436230;28;19976;-73
2023/12/24 07:37:48;;;;;;;;;;;10.80;99.90;;;;;;8438327;28;19931;-71
2023/12/24 07:41:50;;;;;;;;;;;10.80;99.90;;;;;;8438786;28;19924;-72
2023/12/24 07:45:52;;;;;;;;;;;10.80;99.90;;;;;;8446965;28;20372;-72
2023/12/24 07:49:53;;;;;;;;;;;10.80;99.90;;;;;;8419264;28;19940;-72
2023/12/24 07:53:55;;;;;;;;;;;10.90;99.90;;;;;;8464522;27;19927;-72
2023/12/24 07:57:57;;;;;;;;;;;10.90;99.90;;;;;;8435753;28;19924;-72
2023/12/24 08:01:59;;;;;;;;;;;10.90;99.90;;;;;;8441821;28;19966;-72
2023/12/24 08:06:00;;;;;;;;;;;10.90;99.90;;;;;;8434152;28;20227;-72
2023/12/24 08:10:02;;;;;;;;;;;10.90;99.90;;;;;;8427907;28;19923;-72
2023/12/24 08:14:04;;;;;;;;;;;10.90;99.90;;;;;;8435133;28;20093;-72
2023/12/24 08:18:06;;;;;;;;;;;10.90;99.90;;;;;;8424988;28;19928;-72
2023/12/24 08:22:08;;;;;;;;;;;10.90;99.90;;;;;;8419325;28;19963;-72
2023/12/24 08:26:09;;;;;;;;;;;10.90;99.90;;;;;;8439971;28;19924;-72
2023/12/24 08:30:13;;;;;;;;;;;11.00;99.90;;;;;;8433258;28;20373;-73
2023/12/24 08:34:15;;;;;;;;;;;11.00;99.90;;;;;;8414826;28;19925;-72
2023/12/24 08:38:17;;;;;;;;;;;11.00;99.90;;;;;;8426525;28;19930;-71
2023/12/24 08:42:18;;;;;;;;;;;11.00;99.90;;;;;;8431572;28;20348;-71
2023/12/24 08:46:20;;;;;;;;;;;11.00;99.90;;;;;;8447104;28;19924;-74
2023/12/24 08:50:22;;;;;;;;;;;11.00;99.90;;;;;;8440350;28;19931;-72
2023/12/24 08:54:24;;;;;;;;;;;11.00;99.90;;;;;;8448336;28;19930;-72
2023/12/24 08:58:26;;;;;;;;;;;11.10;99.90;;;;;;8444756;28;20407;-72
2023/12/24 09:02:28;;;;;;;;;;;11.10;99.90;;;;;;8433035;28;19931;-71
2023/12/24 09:06:30;;;;;;;;;;;11.10;99.90;;;;;;8445904;28;19970;-72
2023/12/24 09:10:32;;;;;;;;;;;11.10;99.90;;;;;;8433642;28;20374;-71
2023/12/24 09:14:33;;;;;;;;;;;11.10;99.90;;;;;;8436194;28;19932;-72
2023/12/24 09:18:35;;;;;;;;;;;11.10;99.90;;;;;;8433803;28;19932;-72
2023/12/24 09:22:37;;;;;;;;;;;11.10;99.90;;;;;;8434301;28;19928;-72
2023/12/24 09:26:38;;;;;;;;;;;11.20;99.90;;;;;;8436732;28;20383;-72
2023/12/24 09:30:41;;;;;;;;;;;11.20;99.90;;;;;;8445460;28;19974;-72
2023/12/24 09:34:44;;;;;;;;;;;11.20;99.90;;;;;;8454269;28;19924;-72
2023/12/24 09:38:46;;;;;;;;;;;11.20;99.90;;;;;;8427417;28;19928;-72
2023/12/24 09:42:48;;;;;;;;;;;11.20;99.90;;;;;;8422253;28;20336;-72
2023/12/24 09:46:50;;;;;;;;;;;11.20;99.90;;;;;;8426731;28;20282;-72
2023/12/24 09:50:52;;;;;;;;;;;11.20;99.90;;;;;;8433946;28;19928;-72
2023/12/24 09:54:54;;;;;;;;;;;11.30;99.90;;;;;;8421942;28;19928;-72
2023/12/24 09:58:56;;;;;;;;;;;11.30;99.90;;;;;;8456918;27;20449;-72
2023/12/24 10:03:00;;;;;;;;;;;11.30;99.90;;;;;;8446199;28;20014;-73
2023/12/24 10:07:02;;;;;;;;;;;11.30;99.90;;;;;;8436672;28;19931;-72
2023/12/24 10:11:15;;;;;;;;;;;11.40;99.90;;;;;;8440562;28;19924;-72
2023/12/24 10:15:20;;;;;;;;;;;11.40;99.90;;;;;;8438450;28;19928;-73
2023/12/24 10:19:22;;;;;;;;;;;11.40;99.90;;;;;;8436966;28;19932;-73
2023/12/24 10:23:24;;;;;;;;;;;11.40;99.90;;;;;;8428979;28;19924;-72
2023/12/24 10:27:25;;;;;;;;;;;11.40;99.90;;;;;;8434794;28;20275;-72
2023/12/24 10:31:27;;;;;;;;;;;11.50;99.90;;;;;;8429416;28;19969;-72
2023/12/24 10:35:29;;;;;;;;;;;11.50;99.90;;;;;;8432727;28;20341;-72
2023/12/24 10:39:31;;;;;;;;;;;11.50;99.90;;;;;;8447424;28;19923;-72
2023/12/24 10:43:33;;;;;;;;;;;11.50;99.90;;;;;;8427975;28;19931;-72
2023/12/24 10:47:35;;;;;;;;;;;11.50;99.90;;;;;;8410220;28;19925;-72
2023/12/24 10:51:39;;;;;;;;;;;11.50;99.90;;;;;;8423075;28;19938;-73
2023/12/24 10:55:54;;;;;;;;;;;11.50;99.90;;;;;;8442773;27;20624;-72
2023/12/24 11:00:03;;;;;;;;;;;11.50;99.90;;;;;;8423960;28;19946;-73
2023/12/24 11:04:05;;;;;;;;;;;11.50;99.90;;;;;;8422557;28;19970;-72
2023/12/24 11:08:19;;;;;;;;;;;11.50;99.90;;;;;;8435014;28;20010;-72
2023/12/24 11:12:47;;;;;;;;;;;11.50;99.90;;;;;;8437045;28;20525;-72
2023/12/24 11:16:58;;;;;;;;;;;11.60;99.90;;;;;;8420115;28;20371;-72
2023/12/24 11:21:00;;;;;;;;;;;11.60;99.90;;;;;;8450325;27;19932;-72
2023/12/24 11:25:15;;;;;;;;;;;11.60;99.90;;;;;;8413246;28;19924;-72
2023/12/24 11:29:36;;;;;;;;;;;11.50;99.90;;;;;;8412677;28;20023;-71
2023/12/24 11:33:45;;;;;;;;;;;11.50;99.90;;;;;;8415086;28;19924;-71
2023/12/24 11:37:47;;;;;;;;;;;11.60;99.90;;;;;;8411981;28;20019;-71
2023/12/24 11:41:49;;;;;;;;;;;11.60;99.90;;;;;;8428410;28;19931;-72
2023/12/24 11:45:51;;;;;;;;;;;11.60;99.90;;;;;;8435163;28;19932;-71
2023/12/24 11:49:53;;;;;;;;;;;11.60;99.90;;;;;;8424789;28;20029;-72
2023/12/24 11:53:59;;;;;;;;;;;11.60;99.90;;;;;;8424433;28;19928;-72
2023/12/24 11:58:01;;;;;;;;;;;11.60;99.90;;;;;;8428710;28;19924;-72
2023/12/24 12:02:03;;;;;;;;;;;11.60;99.90;;;;;;8427101;28;19954;-72
2023/12/24 12:06:05;;;;;;;;;;;11.60;99.90;;;;;;8431959;28;19924;-71
2023/12/24 12:10:07;;;;;;;;;;;11.70;99.90;;;;;;8444400;28;19931;-71
2023/12/24 12:14:09;;;;;;;;;;;11.70;99.90;;;;;;8427597;28;19985;-71
2023/12/24 12:18:11;;;;;;;;;;;11.70;99.90;;;;;;8451506;28;19932;-72
2023/12/24 12:22:13;;;;;;;;;;;11.70;99.90;;;;;;8450526;28;19934;-72
2023/12/24 12:26:14;;;;;;;;;;;11.70;99.90;;;;;;8428444;28;19993;-71
2023/12/24 12:30:16;;;;;;;;;;;11.80;99.90;;;;;;8464987;27;19928;-72
2023/12/24 12:34:18;;;;;;;;;;;11.80;99.90;;;;;;8442283;28;19924;-72
2023/12/24 12:38:20;;;;;;;;;;;11.80;99.90;;;;;;8432696;28;20368;-72
2023/12/24 12:42:22;;;;;;;;;;;11.80;99.90;;;;;;8449666;28;20331;-72
2023/12/24 12:46:32;;;;;;;;;;;11.80;99.90;;;;;;8443306;28;19923;-72
2023/12/24 12:50:34;;;;;;;;;;;11.80;99.90;;;;;;8444804;28;19924;-72
2023/12/24 13:04:46;;;;;;;;;;;11.80;99.90;;;;;;8422919;28;19958;-71
2023/12/24 13:08:47;;;;;;;;;;;11.90;99.90;;;;;;8445462;28;19928;-71
2023/12/24 13:13:04;;;;;;;;;;;11.90;99.90;;;;;;8431323;28;20405;-72
2023/12/24 13:17:06;;;;;;;;;;;11.90;99.90;;;;;;8435905;28;20327;-71
2023/12/24 13:21:08;;;;;;;;;;;11.90;99.90;;;;;;8441047;28;20417;-71
2023/12/24 13:25:10;;;;;;;;;;;11.90;99.90;;;;;;8436285;28;20440;-71
2023/12/24 13:29:12;;;;;;;;;;;11.90;99.90;;;;;;8435795;28;19924;-72
2023/12/24 13:33:15;;;;;;;;;;;11.90;99.90;;;;;;8440427;28;19931;-71
2023/12/24 13:37:17;;;;;;;;;;;11.90;99.90;;;;;;8427620;28;19964;-71
2023/12/24 13:41:18;;;;;;;;;;;11.90;99.90;;;;;;8433875;28;19924;-71
2023/12/24 13:45:20;;;;;;;;;;;11.90;99.90;;;;;;8458373;27;19928;-71
2023/12/24 13:49:22;;;;;;;;;;;11.90;99.90;;;;;;8433052;28;20474;-72
2023/12/24 13:53:23;;;;;;;;;;;11.90;99.90;;;;;;8432769;28;20019;-72
2023/12/24 13:57:33;;;;;;;;;;;11.90;99.90;;;;;;8452368;27;19986;-72
2023/12/24 14:01:36;;;;;;;;;;;11.90;99.90;;;;;;8400212;28;20702;-72
2023/12/24 14:05:40;;;;;;;;;;;11.90;99.90;;;;;;8407166;28;20363;-72
2023/12/24 14:14:45;;;;;;;;;;;11.90;99.90;;;;;;8406756;28;19962;-72
2023/12/24 14:18:47;;;;;;;;;;;11.90;99.90;;;;;;8436045;27;19973;-72
2023/12/24 14:22:48;;;;;;;;;;;11.90;99.90;;;;;;8398104;28;19928;-73
2023/12/24 14:26:50;;;;;;;;;;;11.90;99.90;;;;;;8402928;28;20387;-72
2023/12/24 14:30:52;;;;;;;;;;;11.90;99.90;;;;;;8431774;27;19928;-72
2023/12/24 14:34:54;;;;;;;;;;;11.80;99.90;;;;;;8396853;28;19928;-72
2023/12/24 14:38:55;;;;;;;;;;;11.80;99.90;;;;;;8400635;28;19927;-73
2023/12/24 14:42:57;;;;;;;;;;;11.80;99.90;;;;;;8400186;28;19960;-72
2023/12/24 14:46:59;;;;;;;;;;;11.80;99.90;;;;;;8434591;27;19931;-72
2023/12/24 14:51:02;;;;;;;;;;;11.80;99.90;;;;;;8400235;28;19962;-73
2023/12/24 14:55:04;;;;;;;;;;;11.80;99.90;;;;;;8396893;28;19932;-73
2023/12/24 14:59:09;;;;;;;;;;;11.70;99.90;;;;;;8400598;28;19993;-73
2023/12/24 15:03:12;;;;;;;;;;;11.70;99.90;;;;;;8400948;28;19936;-73
2023/12/24 15:07:13;;;;;;;;;;;11.70;99.90;;;;;;8400052;28;19925;-72
2023/12/24 15:11:17;;;;;;;;;;;11.70;99.90;;;;;;8393257;28;19978;-72
2023/12/24 15:15:19;;;;;;;;;;;11.70;99.90;;;;;;8397997;28;19931;-72
2023/12/24 15:19:20;;;;;;;;;;;11.70;99.90;;;;;;8396922;28;20272;-73
2023/12/24 15:23:22;;;;;;;;;;;11.70;99.90;;;;;;8403444;28;19936;-72
2023/12/24 15:27:24;;;;;;;;;;;11.70;99.90;;;;;;8396836;28;21646;-73
2023/12/24 15:31:29;;;;;;;;;;;11.60;99.90;;;;;;8432415;27;19928;-73
2023/12/24 15:35:31;;;;;;;;;;;11.70;99.90;;;;;;8395196;28;20383;-72
2023/12/24 15:39:33;;;;;;;;;;;11.70;99.90;;;;;;8398699;28;19927;-73
2023/12/24 15:43:41;;;;;;;;;;;11.60;99.90;;;;;;8400451;28;19924;-73
2023/12/24 15:47:43;;;;;;;;;;;11.60;99.90;;;;;;8397334;28;19928;-74
2023/12/24 15:51:44;;;;;;;;;;;11.60;99.90;;;;;;8404886;28;19932;-73
2023/12/24 15:55:46;;;;;;;;;;;11.60;99.90;;;;;;8403289;28;19924;-72
2023/12/24 15:59:48;;;;;;;;;;;11.60;99.90;;;;;;8400953;28;19948;-73
2023/12/24 16:03:51;;;;;;;;;;;11.60;99.90;;;;;;8437346;27;20197;-72
2023/12/24 16:07:53;;;;;;;;;;;11.60;99.90;;;;;;8406271;28;19924;-73
2023/12/24 16:11:55;;;;;;;;;;;11.60;99.90;;;;;;8401999;28;19931;-73
2023/12/24 16:15:56;;;;;;;;;;;11.60;99.90;;;;;;8401124;28;19924;-73
2023/12/24 16:19:58;;;;;;;;;;;11.60;99.90;;;;;;8407648;28;20146;-73
2023/12/24 16:24:00;;;;;;;;;;;11.60;99.90;;;;;;8415840;28;20280;-73
2023/12/24 16:28:01;;;;;;;;;;;11.50;99.90;;;;;;8417890;28;19924;-73
2023/12/24 16:32:03;;;;;;;;;;;11.50;99.90;;;;;;8411794;28;20346;-73
2023/12/24 16:36:08;;;;;;;;;;;11.50;99.90;;;;;;8434858;27;20019;-73
2023/12/24 16:40:10;;;;;;;;;;;11.50;99.90;;;;;;8438223;27;20151;-72
2023/12/24 16:54:20;;;;;;;;;;;11.50;99.90;;;;;;8412374;28;19919;-72
2023/12/24 16:58:22;;;;;;;;;;;11.50;99.90;;;;;;8417556;28;19947;-73
2023/12/24 17:02:23;;;;;;;;;;;11.60;99.90;;;;;;8408282;28;19932;-72
2023/12/24 17:06:25;;;;;;;;;;;11.60;99.90;;;;;;8441554;27;19935;-72
2023/12/24 17:10:27;;;;;;;;;;;11.60;99.90;;;;;;8412239;28;19932;-73
2023/12/24 17:14:28;;;;;;;;;;;11.70;99.90;;;;;;8408406;28;19967;-73
2023/12/24 17:18:30;;;;;;;;;;;11.70;99.90;;;;;;8409514;28;19956;-72
2023/12/24 17:22:32;;;;;;;;;;;11.70;99.90;;;;;;8411574;28;19932;-72
2023/12/24 17:26:36;;;;;;;;;;;11.70;99.90;;;;;;8409135;28;20115;-72
2023/12/24 17:30:38;;;;;;;;;;;11.80;99.90;;;;;;8416802;28;19989;-72
2023/12/24 17:34:40;;;;;;;;;;;11.80;99.90;;;;;;8409199;28;19925;-72
2023/12/24 17:38:42;;;;;;;;;;;11.80;99.90;;;;;;8397564;28;19944;-73
2023/12/24 17:42:44;;;;;;;;;;;11.80;99.90;;;;;;8399944;28;20376;-73
2023/12/24 17:46:45;;;;;;;;;;;11.80;99.90;;;;;;8397076;28;19929;-72
2023/12/24 17:50:47;;;;;;;;;;;11.80;99.90;;;;;;8406149;28;19997;-73
2023/12/24 17:54:49;;;;;;;;;;;11.90;99.90;;;;;;8398138;28;22493;-73
2023/12/24 17:58:51;;;;;;;;;;;11.90;99.90;;;;;;8398320;28;19928;-73
2023/12/24 18:02:52;;;;;;;;;;;11.90;99.90;;;;;;8398698;28;20359;-73
2023/12/24 18:06:54;;;;;;;;;;;11.90;99.90;;;;;;8437548;27;19924;-73
2023/12/24 18:10:56;;;;;;;;;;;12.00;99.90;;;;;;8394176;28;20019;-73
2023/12/24 18:15:00;;;;;;;;;;;11.90;99.90;;;;;;8400125;28;19924;-73
2023/12/24 18:19:02;;;;;;;;;;;11.90;99.90;;;;;;8404301;28;19924;-73
2023/12/24 18:23:03;;;;;;;;;;;11.90;99.90;;;;;;8396544;28;20383;-73
2023/12/24 18:27:05;;;;;;;;;;;11.90;99.90;;;;;;8405870;28;19928;-73
2023/12/24 18:31:07;;;;;;;;;;;12.00;99.90;;;;;;8396747;28;20327;-73
2023/12/24 18:35:09;;;;;;;;;;;11.90;99.90;;;;;;8397711;28;20299;-73
2023/12/24 18:39:12;;;;;;;;;;;12.00;99.90;;;;;;8397638;28;20290;-73
2023/12/24 18:43:14;;;;;;;;;;;12.00;99.90;;;;;;8407737;28;19928;-73
2023/12/24 18:47:15;;;;;;;;;;;12.00;99.90;;;;;;8399246;28;19928;-74
2023/12/24 18:51:21;;;;;;;;;;;12.00;99.90;;;;;;8396163;28;19932;-73
2023/12/24 18:55:24;;;;;;;;;;;12.00;99.90;;;;;;8407256;28;19970;-73
2023/12/24 18:59:25;;;;;;;;;;;12.00;99.90;;;;;;8398984;28;20005;-73
2023/12/24 19:03:27;;;;;;;;;;;12.00;99.90;;;;;;8407815;28;20303;-73
2023/12/24 19:07:29;;;;;;;;;;;12.00;99.90;;;;;;8396608;28;19924;-74
2023/12/24 19:11:31;;;;;;;;;;;12.00;99.90;;;;;;8396371;28;19954;-73
2023/12/24 19:30:37;;;;;;;;;;;12.10;99.90;;;;;;8400299;28;20317;-73
2023/12/24 19:34:39;;;;;;;;;;;12.10;99.90;;;;;;8396424;28;19934;-73
2023/12/24 19:38:40;;;;;;;;;;;12.20;99.90;;;;;;8439816;27;19928;-73
2023/12/24 19:42:43;;;;;;;;;;;12.20;99.90;;;;;;8395975;28;19925;-74
2023/12/24 19:46:44;;;;;;;;;;;12.20;99.90;;;;;;8403715;28;19936;-74
2023/12/24 19:50:46;;;;;;;;;;;12.30;99.90;;;;;;8390250;28;19924;-74
2023/12/24 19:54:48;;;;;;;;;;;12.30;99.90;;;;;;8395582;28;19924;-74
2023/12/24 19:58:51;;;;;;;;;;;12.30;99.90;;;;;;8396797;28;19928;-74
2023/12/24 20:02:52;;;;;;;;;;;12.30;99.90;;;;;;8429318;27;19974;-74
2023/12/24 20:06:55;;;;;;;;;;;12.30;99.90;;;;;;8397775;28;19928;-75
2023/12/24 20:10:56;;;;;;;;;;;12.30;99.90;;;;;;8394117;28;19932;-74
2023/12/24 20:14:58;;;;;;;;;;;12.30;99.90;;;;;;8398205;28;19924;-74
2023/12/24 20:19:00;;;;;;;;;;;12.30;99.90;;;;;;8400734;28;19981;-74
2023/12/24 20:23:01;;;;;;;;;;;12.30;99.90;;;;;;8396423;28;19981;-74
2023/12/24 20:27:04;;;;;;;;;;;12.30;99.90;;;;;;8400048;28;19981;-74
2023/12/24 20:31:10;;;;;;;;;;;12.30;99.90;;;;;;8395343;28;19924;-74
2023/12/24 20:35:12;;;;;;;;;;;12.30;99.90;;;;;;8392876;28;19939;-74
2023/12/24 20:39:14;;;;;;;;;;;12.30;99.90;;;;;;8428540;27;19928;-74
2023/12/24 20:43:16;;;;;;;;;;;12.40;99.90;;;;;;8401966;28;20268;-74
2023/12/24 20:47:17;;;;;;;;;;;12.30;99.90;;;;;;8414449;28;20372;-74
2023/12/24 20:51:19;;;;;;;;;;;12.10;99.90;;;;;;8402191;28;20140;-74
2023/12/24 20:55:21;;;;;;;;;;;12.00;99.90;;;;;;8401622;28;19924;-74
2023/12/24 20:59:23;;;;;;;;;;;11.90;99.90;;;;;;8404926;28;19950;-74
2023/12/24 21:03:25;;;;;;;;;;;11.90;99.90;;;;;;8398455;28;19931;-73
2023/12/24 21:07:28;;;;;;;;;;;11.90;99.90;;;;;;8395213;28;19935;-73
2023/12/24 21:11:30;;;;;;;;;;;11.90;99.90;;;;;;8401551;28;20061;-74
2023/12/24 21:15:32;;;;;;;;;;;11.90;99.90;;;;;;8404385;28;20420;-74
2023/12/24 21:19:33;;;;;;;;;;;11.90;99.90;;;;;;8435944;27;19979;-73
2023/12/24 21:23:41;;;;;;;;;;;11.90;99.90;;;;;;8397344;28;19925;-74
2023/12/24 21:27:43;;;;;;;;;;;11.90;99.90;;;;;;8399139;28;19924;-73
2023/12/24 21:31:45;;;;;;;;;;;11.90;99.90;;;;;;8401684;28;19932;-73
2023/12/24 21:35:46;;;;;;;;;;;11.90;99.90;;;;;;8398121;28;19924;-74
2023/12/24 21:39:48;;;;;;;;;;;11.90;99.90;;;;;;8428886;27;19929;-74
2023/12/24 21:44:08;;;;;;;;;;;11.90;99.90;;;;;;8404059;28;19964;-73
2023/12/24 21:48:09;;;;;;;;;;;12.00;99.90;;;;;;8393567;28;19928;-73
2023/12/24 21:52:11;;;;;;;;;;;12.00;99.90;;;;;;8428366;27;20291;-74
2023/12/24 21:56:13;;;;;;;;;;;12.00;99.90;;;;;;8400342;28;19932;-73
2023/12/24 22:00:15;;;;;;;;;;;12.10;99.90;;;;;;8398243;28;20438;-73
2023/12/24 22:04:16;;;;;;;;;;;12.10;99.90;;;;;;8431901;28;20504;-73
2023/12/24 22:08:18;;;;;;;;;;;12.10;99.90;;;;;;8429302;28;19932;-73
2023/12/24 22:12:20;;;;;;;;;;;12.20;99.90;;;;;;8425740;28;20240;-73
2023/12/24 22:16:21;;;;;;;;;;;12.10;99.90;;;;;;8433645;28;20436;-73
2023/12/24 22:20:23;;;;;;;;;;;12.20;99.90;;;;;;8429076;28;19931;-73
2023/12/24 22:24:25;;;;;;;;;;;12.20;99.90;;;;;;8431147;28;19924;-73
2023/12/24 22:28:26;;;;;;;;;;;12.20;99.90;;;;;;8428750;28;19924;-73
2023/12/24 22:32:29;;;;;;;;;;;12.20;99.90;;;;;;8435929;28;19935;-73
2023/12/24 22:36:31;;;;;;;;;;;12.30;99.90;;;;;;8438482;28;20262;-73
2023/12/24 22:40:33;;;;;;;;;;;12.20;99.90;;;;;;8430069;28;19923;-74
2023/12/24 22:44:34;;;;;;;;;;;12.30;99.90;;;;;;8424217;28;19931;-73
2023/12/24 22:48:36;;;;;;;;;;;12.20;99.90;;;;;;8429397;28;19991;-73
2023/12/24 22:52:38;;;;;;;;;;;12.30;99.90;;;;;;8416758;28;19935;-73
2023/12/24 22:56:40;;;;;;;;;;;12.30;99.90;;;;;;8411721;28;19990;-73
2023/12/24 23:00:42;;;;;;;;;;;12.30;99.90;;;;;;8414682;28;19959;-73
2023/12/24 23:04:44;;;;;;;;;;;12.30;99.90;;;;;;8424552;28;19971;-73
2023/12/24 23:08:45;;;;;;;;;;;12.30;99.90;;;;;;8421717;28;19932;-73
2023/12/24 23:12:47;;;;;;;;;;;12.30;99.90;;;;;;8428805;28;20461;-73
2023/12/24 23:16:49;;;;;;;;;;;12.30;99.90;;;;;;8434740;28;19924;-73
2023/12/24 23:20:50;;;;;;;;;;;12.30;99.90;;;;;;8449031;27;20269;-73
2023/12/24 23:24:52;;;;;;;;;;;12.30;99.90;;;;;;8415147;28;20001;-73
2023/12/24 23:28:54;;;;;;;;;;;12.30;99.90;;;;;;8419116;28;20014;-73
2023/12/24 23:32:56;;;;;;;;;;;12.30;99.90;;;;;;8417275;28;19924;-73
2023/12/24 23:36:57;;;;;;;;;;;12.30;99.90;;;;;;8438408;28;19928;-73
2023/12/24 23:40:59;;;;;;;;;;;12.30;99.90;;;;;;8432245;28;19932;-73
2023/12/24 23:45:01;;;;;;;;;;;12.30;99.90;;;;;;8432124;28;19972;-74
2023/12/24 23:49:02;;;;;;;;;;;12.30;99.90;;;;;;8431716;28;20353;-73
2023/12/24 23:53:04;;;;;;;;;;;12.30;99.90;;;;;;8434774;28;19946;-73
2023/12/24 23:57:06;;;;;;;;;;;12.30;99.90;;;;;;8440273;28;20403;-73
